createdAt,value
2022-09-12T00:01:26.261Z,16.80
2022-09-12T00:04:48.370Z,16.80
2022-09-12T00:08:11.741Z,16.80
2022-09-12T00:11:39.725Z,16.80
2022-09-12T00:15:01.693Z,16.80
2022-09-12T00:18:23.687Z,16.80
2022-09-12T00:21:45.658Z,16.70
2022-09-12T00:25:07.949Z,16.80
2022-09-12T00:28:29.911Z,16.70
2022-09-12T00:31:51.988Z,16.80
2022-09-12T00:35:14.021Z,16.80
2022-09-12T00:38:38.610Z,16.80
2022-09-12T00:42:00.642Z,16.80
2022-09-12T00:45:27.370Z,16.70
2022-09-12T00:49:13.108Z,16.70
2022-09-12T00:52:57.504Z,16.60
2022-09-12T00:56:22.038Z,16.60
2022-09-12T00:59:55.638Z,16.50
2022-09-12T01:03:20.345Z,16.50
2022-09-12T01:06:44.144Z,16.50
2022-09-12T01:10:08.490Z,16.40
2022-09-12T01:13:31.433Z,16.30
2022-09-12T01:16:53.431Z,16.20
2022-09-12T01:20:46.691Z,16.20
2022-09-12T01:24:23.847Z,16.20
2022-09-12T01:28:10.020Z,16.20
2022-09-12T01:31:39.959Z,16.20
2022-09-12T01:35:09.696Z,16.10
2022-09-12T01:39:10.134Z,16.20
2022-09-12T01:43:04.380Z,16.20
2022-09-12T01:46:43.041Z,16.10
2022-09-12T01:50:19.180Z,16.20
2022-09-12T01:53:52.537Z,16.20
2022-09-12T01:57:25.742Z,16.20
2022-09-12T02:01:11.312Z,16.10
2022-09-12T02:04:44.627Z,16.20
2022-09-12T02:08:11.987Z,16.10
2022-09-12T02:11:38.689Z,16.10
2022-09-12T02:15:07.363Z,16.10
2022-09-12T02:18:32.946Z,16.10
2022-09-12T02:21:58.381Z,16.10
2022-09-12T02:25:22.190Z,16.10
2022-09-12T02:28:44.418Z,16.10
2022-09-12T02:32:28.332Z,16.00
2022-09-12T02:35:55.449Z,16.10
2022-09-12T02:39:22.211Z,16.00
2022-09-12T02:42:44.711Z,16.00
2022-09-12T02:46:14.761Z,16.10
2022-09-12T02:49:36.890Z,16.10
2022-09-12T02:53:04.584Z,16.10
2022-09-12T02:56:30.930Z,16.20
2022-09-12T02:59:58.865Z,16.30
2022-09-12T03:03:26.704Z,16.30
2022-09-12T03:07:13.278Z,16.30
2022-09-12T03:10:44.263Z,16.30
2022-09-12T03:14:26.936Z,16.30
2022-09-12T03:18:03.891Z,16.40
2022-09-12T03:21:25.762Z,16.30
2022-09-12T03:25:16.993Z,16.30
2022-09-12T03:28:40.659Z,16.30
2022-09-12T03:32:02.749Z,16.20
2022-09-12T03:35:25.495Z,16.20
2022-09-12T03:38:47.688Z,16.20
2022-09-12T03:42:09.756Z,16.10
2022-09-12T03:45:31.921Z,16.00
2022-09-12T03:48:53.909Z,16.00
2022-09-12T03:52:15.864Z,16.00
2022-09-12T03:55:39.452Z,15.90
2022-09-12T03:59:01.455Z,15.90
2022-09-12T04:02:23.435Z,15.90
2022-09-12T04:05:49.182Z,15.80
2022-09-12T04:09:12.833Z,15.90
2022-09-12T04:12:35.871Z,15.80
2022-09-12T04:15:59.678Z,15.80
2022-09-12T04:19:25.185Z,15.80
2022-09-12T04:22:47.113Z,15.90
2022-09-12T04:26:10.705Z,15.90
2022-09-12T04:29:36.060Z,15.90
2022-09-12T04:32:58.643Z,15.90
2022-09-12T04:36:21.406Z,15.90
2022-09-12T04:39:51.557Z,15.90
2022-09-12T04:43:14.715Z,15.90
2022-09-12T04:46:42.348Z,15.80
2022-09-12T04:50:06.924Z,15.80
2022-09-12T04:53:33.896Z,15.70
2022-09-12T04:57:00.442Z,15.80
2022-09-12T05:00:23.191Z,15.90
2022-09-12T05:03:47.171Z,15.90
2022-09-12T05:07:09.229Z,16.00
2022-09-12T05:10:31.548Z,16.10
2022-09-12T05:13:54.991Z,16.10
2022-09-12T05:17:17.347Z,16.10
2022-09-12T05:20:39.316Z,16.30
2022-09-12T05:24:01.790Z,16.30
2022-09-12T05:27:23.788Z,16.40
2022-09-12T05:30:45.979Z,16.60
2022-09-12T05:34:10.208Z,16.80
2022-09-12T05:37:33.466Z,17.00
2022-09-12T05:41:05.032Z,17.50
2022-09-12T05:44:27.024Z,18.80
2022-09-12T05:47:49.070Z,20.30
2022-09-12T05:51:19.228Z,21.60
2022-09-12T05:54:41.311Z,22.70
2022-09-12T05:58:03.343Z,23.80
2022-09-12T06:01:27.626Z,24.60
2022-09-12T06:04:50.181Z,25.30
2022-09-12T06:08:12.111Z,25.90
2022-09-12T06:11:37.349Z,26.70
2022-09-12T06:14:59.345Z,27.20
2022-09-12T06:18:21.312Z,27.70
2022-09-12T06:21:43.844Z,28.30
2022-09-12T06:25:06.246Z,28.60
2022-09-12T06:28:28.546Z,29.20
2022-09-12T06:31:50.529Z,30.20
2022-09-12T06:35:13.761Z,30.50
2022-09-12T06:38:35.995Z,31.00
2022-09-12T06:41:58.195Z,31.30
2022-09-12T06:45:29.018Z,31.80
2022-09-12T06:48:51.070Z,32.20
2022-09-12T06:52:13.049Z,32.70
2022-09-12T06:55:35.124Z,33.10
2022-09-12T06:58:59.114Z,33.50
2022-09-12T07:02:21.322Z,33.50
2022-09-12T07:05:43.853Z,34.20
2022-09-12T07:09:07.526Z,34.80
2022-09-12T07:12:30.341Z,35.30
2022-09-12T07:15:52.393Z,36.00
2022-09-12T07:19:14.862Z,36.30
2022-09-12T07:22:37.847Z,36.00
2022-09-12T07:26:00.915Z,36.10
2022-09-12T07:29:36.379Z,36.00
2022-09-12T07:32:59.478Z,36.20
2022-09-12T07:36:23.864Z,36.70
2022-09-12T07:39:45.884Z,37.00
2022-09-12T07:43:07.837Z,37.00
2022-09-12T07:46:31.325Z,34.70
2022-09-12T07:49:53.390Z,34.70
2022-09-12T07:53:16.551Z,34.10
2022-09-12T07:56:39.628Z,34.10
2022-09-12T08:00:02.047Z,34.40
2022-09-12T08:03:34.973Z,35.40
2022-09-12T08:07:03.031Z,36.00
2022-09-12T08:10:36.688Z,36.20
2022-09-12T08:14:30.125Z,34.90
2022-09-12T08:17:53.893Z,35.10
2022-09-12T08:21:18.924Z,35.10
2022-09-12T08:24:41.847Z,35.20
2022-09-12T08:28:04.214Z,34.00
2022-09-12T08:31:28.448Z,35.10
2022-09-12T08:34:55.653Z,35.80
2022-09-12T08:38:20.936Z,36.10
2022-09-12T08:41:56.117Z,35.30
2022-09-12T08:45:47.794Z,35.20
2022-09-12T08:49:22.047Z,35.30
2022-09-12T08:53:10.930Z,34.30
2022-09-12T08:56:37.434Z,34.40
2022-09-12T09:00:03.057Z,34.10
2022-09-12T09:04:18.167Z,33.60
2022-09-12T09:07:29.247Z,33.40
2022-09-12T09:11:03.286Z,34.80
2022-09-12T09:15:12.011Z,34.70
2022-09-12T09:18:46.246Z,34.00
2022-09-12T09:22:20.564Z,34.00
2022-09-12T09:26:03.142Z,33.10
2022-09-12T09:29:34.010Z,34.10
2022-09-12T09:33:00.985Z,34.90
2022-09-12T09:36:50.826Z,34.90
2022-09-12T09:40:27.358Z,34.20
2022-09-12T09:43:50.466Z,33.70
2022-09-12T09:47:12.868Z,34.20
2022-09-12T09:50:35.386Z,34.80
2022-09-12T09:54:14.729Z,35.50
2022-09-12T09:57:37.165Z,34.60
2022-09-12T10:01:01.876Z,34.60
2022-09-12T10:04:27.276Z,34.00
2022-09-12T10:07:53.939Z,34.30
2022-09-12T10:11:23.521Z,34.60
2022-09-12T10:15:01.456Z,34.80
2022-09-12T10:18:39.816Z,33.20
2022-09-12T10:22:04.353Z,33.10
2022-09-12T10:25:29.402Z,33.20
2022-09-12T10:28:55.497Z,34.30
2022-09-12T10:32:31.108Z,33.90
2022-09-12T10:35:55.196Z,32.40
2022-09-12T10:39:22.449Z,33.00
2022-09-12T10:42:53.185Z,32.30
2022-09-12T10:46:18.096Z,31.90
2022-09-12T10:49:40.679Z,32.50
2022-09-12T10:53:23.024Z,33.10
2022-09-12T10:56:50.805Z,33.70
2022-09-12T11:00:16.870Z,33.70
2022-09-12T11:04:10.624Z,33.00
2022-09-12T11:07:46.925Z,32.40
2022-09-12T11:11:11.741Z,31.80
2022-09-12T11:14:44.407Z,32.30
2022-09-12T11:18:14.950Z,31.20
2022-09-12T11:21:37.417Z,30.30
2022-09-12T11:25:24.849Z,30.70
2022-09-12T11:28:57.862Z,31.60
2022-09-12T11:32:41.600Z,32.10
2022-09-12T11:36:08.040Z,32.20
2022-09-12T11:39:41.357Z,32.50
2022-09-12T11:43:27.523Z,31.40
2022-09-12T11:46:54.736Z,31.30
2022-09-12T11:50:28.208Z,31.30
2022-09-12T11:54:40.697Z,30.80
2022-09-12T11:58:02.989Z,29.30
2022-09-12T12:01:41.319Z,28.70
2022-09-12T12:05:23.037Z,28.40
2022-09-12T12:08:46.933Z,29.10
2022-09-12T12:12:15.797Z,30.10
2022-09-12T12:15:39.564Z,30.60
2022-09-12T12:19:08.776Z,30.70
2022-09-12T12:22:32.646Z,30.50
2022-09-12T12:25:57.488Z,30.60
2022-09-12T12:29:22.128Z,30.90
2022-09-12T12:32:44.102Z,30.40
2022-09-12T12:36:09.711Z,30.30
2022-09-12T12:39:55.744Z,30.10
2022-09-12T12:43:32.207Z,30.10
2022-09-12T12:47:22.564Z,30.60
2022-09-12T12:50:46.164Z,30.70
2022-09-12T12:54:31.821Z,30.30
2022-09-12T12:57:59.248Z,30.90
2022-09-12T13:01:23.036Z,31.50
2022-09-12T13:04:45.637Z,31.60
2022-09-12T13:08:20.017Z,31.90
2022-09-12T13:11:42.168Z,32.10
2022-09-12T13:15:25.283Z,31.80
2022-09-12T13:18:49.960Z,31.60
2022-09-12T13:22:12.269Z,31.60
2022-09-12T13:25:36.139Z,32.00
2022-09-12T13:29:31.160Z,31.60
2022-09-12T13:32:53.989Z,30.20
2022-09-12T13:37:11.139Z,30.50
2022-09-12T13:41:06.469Z,31.20
2022-09-12T13:44:31.735Z,31.20
2022-09-12T13:47:58.903Z,31.20
2022-09-12T13:51:27.725Z,31.20
2022-09-12T13:54:56.464Z,31.40
2022-09-12T13:58:21.179Z,31.40
2022-09-12T14:01:46.196Z,31.50
2022-09-12T14:05:14.330Z,31.50
2022-09-12T14:08:41.327Z,31.10
2022-09-12T14:12:03.433Z,30.90
2022-09-12T14:15:29.979Z,30.90
2022-09-12T14:18:52.574Z,31.10
2022-09-12T14:22:18.133Z,31.20
2022-09-12T14:25:41.642Z,31.10
2022-09-12T14:29:07.348Z,31.00
2022-09-12T14:32:29.560Z,30.60
2022-09-12T14:36:07.104Z,30.50
2022-09-12T14:39:34.138Z,29.90
2022-09-12T14:42:59.303Z,29.70
2022-09-12T14:46:33.357Z,29.20
2022-09-12T14:49:55.384Z,29.60
2022-09-12T14:53:17.296Z,29.70
2022-09-12T14:57:14.321Z,29.70
2022-09-12T15:00:36.794Z,29.40
2022-09-12T15:03:58.834Z,28.90
2022-09-12T15:07:24.296Z,29.00
2022-09-12T15:10:46.648Z,28.80
2022-09-12T15:14:15.765Z,28.50
2022-09-12T15:17:37.852Z,28.30
2022-09-12T15:21:07.775Z,28.00
2022-09-12T15:24:29.681Z,28.10
2022-09-12T15:27:53.296Z,28.10
2022-09-12T15:31:29.669Z,28.00
2022-09-12T15:34:52.764Z,27.60
2022-09-12T15:38:15.133Z,27.40
2022-09-12T15:41:39.350Z,27.20
2022-09-12T15:45:02.712Z,27.10
2022-09-12T15:48:24.991Z,27.10
2022-09-12T15:51:46.913Z,27.00
2022-09-12T15:55:19.678Z,26.90
2022-09-12T15:58:55.011Z,26.80
2022-09-12T16:02:20.082Z,26.50
2022-09-12T16:05:42.197Z,26.30
2022-09-12T16:09:04.477Z,26.30
2022-09-12T16:12:26.427Z,26.20
2022-09-12T16:15:48.480Z,26.30
2022-09-12T16:19:11.909Z,26.20
2022-09-12T16:22:34.052Z,26.10
2022-09-12T16:26:00.449Z,26.10
2022-09-12T16:29:22.648Z,26.10
2022-09-12T16:32:44.763Z,26.10
2022-09-12T16:36:12.551Z,26.20
2022-09-12T16:39:34.726Z,26.00
2022-09-12T16:42:56.725Z,26.00
2022-09-12T16:46:20.886Z,25.80
2022-09-12T16:49:42.931Z,25.80
2022-09-12T16:53:04.956Z,25.70
2022-09-12T16:56:26.906Z,25.50
2022-09-12T16:59:49.429Z,25.40
2022-09-12T17:03:11.497Z,25.30
2022-09-12T17:06:34.128Z,25.20
2022-09-12T17:09:56.341Z,25.00
2022-09-12T17:13:18.319Z,24.90
2022-09-12T17:16:43.456Z,24.90
2022-09-12T17:20:06.534Z,24.70
2022-09-12T17:23:28.569Z,24.70
2022-09-12T17:26:51.733Z,24.60
2022-09-12T17:30:14.849Z,24.40
2022-09-12T17:33:37.459Z,24.20
2022-09-12T17:36:59.417Z,24.10
2022-09-12T17:40:32.672Z,23.90
2022-09-12T17:44:04.951Z,23.70
2022-09-12T17:47:27.063Z,23.50
2022-09-12T17:50:49.093Z,23.40
2022-09-12T17:54:16.155Z,23.30
2022-09-12T17:57:38.600Z,23.10
2022-09-12T18:01:23.634Z,23.00
2022-09-12T18:04:47.124Z,22.90
2022-09-12T18:08:09.072Z,22.80
2022-09-12T18:11:31.461Z,22.70
2022-09-12T18:14:53.460Z,22.50
2022-09-12T18:18:15.467Z,22.40
2022-09-12T18:21:37.764Z,22.40
2022-09-12T18:24:59.753Z,22.30
2022-09-12T18:28:21.708Z,22.20
2022-09-12T18:31:44.645Z,22.20
2022-09-12T18:35:07.570Z,22.10
2022-09-12T18:38:31.305Z,22.10
2022-09-12T18:41:53.317Z,22.00
2022-09-12T18:45:15.376Z,22.00
2022-09-12T18:48:37.685Z,21.90
2022-09-12T18:51:59.661Z,21.80
2022-09-12T18:55:23.497Z,21.80
2022-09-12T18:58:49.799Z,21.80
2022-09-12T19:02:16.295Z,21.80
2022-09-12T19:05:38.334Z,21.80
2022-09-12T19:09:06.657Z,21.70
2022-09-12T19:12:29.677Z,21.70
2022-09-12T19:15:52.960Z,21.60
2022-09-12T19:19:14.974Z,21.60
2022-09-12T19:22:37.029Z,21.50
2022-09-12T19:26:01.406Z,21.40
2022-09-12T19:29:23.395Z,21.30
2022-09-12T19:32:45.382Z,21.30
2022-09-12T19:36:22.214Z,21.20
2022-09-12T19:39:49.971Z,21.10
2022-09-12T19:43:11.999Z,21.00
2022-09-12T19:46:34.069Z,21.00
2022-09-12T19:49:56.008Z,20.90
2022-09-12T19:53:18.967Z,20.80
2022-09-12T19:56:40.999Z,20.70
2022-09-12T20:00:05.279Z,20.70
2022-09-12T20:03:28.046Z,20.70
2022-09-12T20:06:49.949Z,20.70
2022-09-12T20:10:12.046Z,20.60
2022-09-12T20:13:34.026Z,20.50
2022-09-12T20:16:55.983Z,20.50
2022-09-12T20:20:18.081Z,20.50
2022-09-12T20:23:41.421Z,20.30
2022-09-12T20:27:03.873Z,20.30
2022-09-12T20:30:25.870Z,20.40
2022-09-12T20:33:51.727Z,20.50
2022-09-12T20:37:14.426Z,20.50
2022-09-12T20:40:36.408Z,20.40
2022-09-12T20:43:58.954Z,20.40
2022-09-12T20:47:20.912Z,20.40
2022-09-12T20:50:42.854Z,20.40
2022-09-12T20:54:06.668Z,20.40
2022-09-12T20:57:28.781Z,20.30
2022-09-12T21:00:51.097Z,20.40
2022-09-12T21:04:15.163Z,20.30
2022-09-12T21:07:37.330Z,20.30
2022-09-12T21:10:59.440Z,20.20
2022-09-12T21:14:21.426Z,20.20
2022-09-12T21:17:43.350Z,20.20
2022-09-12T21:21:06.151Z,20.30
2022-09-12T21:24:28.142Z,20.20
2022-09-12T21:27:50.094Z,20.20
2022-09-12T21:31:12.211Z,20.30
2022-09-12T21:34:34.296Z,20.20
2022-09-12T21:37:56.338Z,20.10
2022-09-12T21:41:18.522Z,20.10
2022-09-12T21:44:40.480Z,20.00
2022-09-12T21:48:02.785Z,19.90
2022-09-12T21:51:24.806Z,19.90
2022-09-12T21:54:46.743Z,19.80
2022-09-12T21:58:08.749Z,19.80
2022-09-12T22:01:30.750Z,19.70
2022-09-12T22:04:52.772Z,19.70
2022-09-12T22:08:14.694Z,19.60
2022-09-12T22:11:36.678Z,19.50
2022-09-12T22:14:58.670Z,19.50
2022-09-12T22:18:20.635Z,19.50
2022-09-12T22:22:02.533Z,19.50
2022-09-12T22:25:24.667Z,19.40
2022-09-12T22:28:47.689Z,19.30
2022-09-12T22:32:09.774Z,19.30
2022-09-12T22:35:31.744Z,19.20
2022-09-12T22:38:53.712Z,19.20
2022-09-12T22:42:15.650Z,19.20
2022-09-12T22:45:41.049Z,19.10
2022-09-12T22:49:04.801Z,19.10
2022-09-12T22:52:26.918Z,19.00
2022-09-12T22:55:48.925Z,19.00
2022-09-12T22:59:11.381Z,19.00
2022-09-12T23:02:35.045Z,18.90
2022-09-12T23:05:57.474Z,18.80
2022-09-12T23:09:20.451Z,18.80
2022-09-12T23:12:42.828Z,18.70
2022-09-12T23:16:07.773Z,18.70
2022-09-12T23:19:30.494Z,18.60
2022-09-12T23:22:52.612Z,18.60
2022-09-12T23:26:23.233Z,18.50
2022-09-12T23:29:45.161Z,18.50
2022-09-12T23:33:07.233Z,18.50
2022-09-12T23:36:29.730Z,18.40
2022-09-12T23:39:51.675Z,18.30
2022-09-12T23:43:13.675Z,18.30
2022-09-12T23:46:35.630Z,18.30
2022-09-12T23:49:57.620Z,18.20
2022-09-12T23:53:20.440Z,18.20
2022-09-12T23:56:42.733Z,18.20
